Time;durP1;ratioP1;P1;durP2;ratioP2;P2;SDS_P1;SDS_P2;PMS_P1;PMS_P2;Temp;Humidity;BMP_temperature;BMP_pressure;BME280_temperature;BME280_humidity;BME280_pressure;Samples;Min_cycle;Max_cycle;Signal;HPM_P1;HPM_P2
2022/01/06 00:02:21;;;;;;;9.98;3.25;;;4.60;60.90;;;;;;5032433;28;20207;-75
2022/01/06 00:04:48;;;;;;;4.85;2.50;;;4.60;61.00;;;;;;5032881;28;20550;-75
2022/01/06 00:07:16;;;;;;;8.63;2.85;;;4.60;60.90;;;;;;5032592;28;20227;-76
2022/01/06 00:09:47;;;;;;;8.20;3.08;;;4.60;61.40;;;;;;5041305;28;20188;-78
2022/01/06 00:12:16;;;;;;;4.75;2.58;;;4.60;61.40;;;;;;5055667;28;20262;-76
2022/01/06 00:14:57;;;;;;;6.70;3.08;;;4.60;61.20;;;;;;5044012;28;20203;-74
2022/01/06 00:17:38;;;;;;;11.88;3.20;;;4.60;61.20;;;;;;5033157;28;20667;-75
2022/01/06 00:23:22;;;;;;;6.15;3.60;;;4.60;61.10;;;;;;5034162;28;20190;-74
2022/01/06 00:25:49;;;;;;;9.60;3.35;;;4.50;61.40;;;;;;5032398;28;20246;-75
2022/01/06 00:28:17;;;;;;;8.18;3.00;;;4.50;61.50;;;;;;5032505;28;20231;-77
2022/01/06 00:30:44;;;;;;;10.50;3.33;;;4.50;61.80;;;;;;5032988;28;20294;-75
2022/01/06 00:33:12;;;;;;;9.52;3.05;;;4.50;62.10;;;;;;5032980;28;20233;-75
2022/01/06 00:35:39;;;;;;;7.03;3.10;;;4.60;61.70;;;;;;5032989;28;20310;-75
2022/01/06 00:38:08;;;;;;;8.52;2.78;;;4.50;61.70;;;;;;5032975;28;20233;-75
2022/01/06 00:40:36;;;;;;;5.70;2.80;;;4.60;61.80;;;;;;5033625;28;20514;-74
2022/01/06 00:43:04;;;;;;;6.60;2.90;;;4.60;61.90;;;;;;5036448;28;20203;-75
2022/01/06 00:45:31;;;;;;;8.85;2.90;;;4.50;62.00;;;;;;5036550;28;20210;-74
2022/01/06 00:47:58;;;;;;;6.50;3.08;;;4.50;61.80;;;;;;5036016;28;20239;-74
2022/01/06 00:50:25;;;;;;;6.93;3.50;;;4.50;62.30;;;;;;5037927;28;20302;-75
2022/01/06 00:52:52;;;;;;;8.25;2.70;;;4.50;62.50;;;;;;5036899;28;20211;-75
2022/01/06 00:55:21;;;;;;;9.13;3.55;;;4.50;63.40;;;;;;5036953;28;20230;-74
2022/01/06 00:57:47;;;;;;;6.70;2.42;;;4.50;62.60;;;;;;5037175;28;20281;-76
2022/01/06 01:00:15;;;;;;;8.90;3.17;;;4.50;62.30;;;;;;5037532;28;20217;-76
2022/01/06 01:02:42;;;;;;;5.40;2.60;;;4.50;62.60;;;;;;5036879;28;20281;-75
2022/01/06 01:05:09;;;;;;;7.88;3.20;;;4.50;63.00;;;;;;5036391;28;20243;-75
2022/01/06 01:07:36;;;;;;;5.45;2.95;;;4.50;62.80;;;;;;5036432;28;20237;-75
2022/01/06 01:10:04;;;;;;;9.43;3.05;;;4.50;63.20;;;;;;5035963;28;20203;-75
2022/01/06 01:12:32;;;;;;;7.57;2.60;;;4.50;63.70;;;;;;5035752;28;20317;-76
2022/01/06 01:15:06;;;;;;;10.27;2.70;;;4.60;63.40;;;;;;5038006;28;20240;-78
2022/01/06 01:17:33;;;;;;;6.07;2.80;;;4.50;64.60;;;;;;5041353;28;20239;-75
2022/01/06 01:20:00;;;;;;;7.90;2.90;;;4.50;63.90;;;;;;5036314;28;20239;-75
2022/01/06 01:22:27;;;;;;;9.52;3.30;;;4.50;63.90;;;;;;5035984;28;20293;-75
2022/01/06 01:24:54;;;;;;;4.60;2.75;;;4.50;64.20;;;;;;5040101;28;20247;-74
2022/01/06 01:27:22;;;;;;;6.05;2.75;;;4.50;63.90;;;;;;5035603;28;20647;-75
2022/01/06 01:29:58;;;;;;;6.28;2.88;;;4.50;63.90;;;;;;5035925;28;20217;-74
2022/01/06 01:32:31;;;;;;;10.70;3.30;;;4.50;63.90;;;;;;5035347;28;20568;-74
2022/01/06 01:35:01;;;;;;;9.30;3.03;;;4.50;63.90;;;;;;5037612;28;20593;-75
2022/01/06 01:37:28;;;;;;;6.13;2.63;;;4.50;63.90;;;;;;5038950;28;20231;-74
2022/01/06 01:39:55;;;;;;;7.07;2.80;;;4.50;63.90;;;;;;5036373;28;20279;-75
2022/01/06 01:42:22;;;;;;;8.27;2.92;;;4.50;63.90;;;;;;5036947;28;20248;-76
2022/01/06 01:44:51;;;;;;;5.88;3.13;;;4.50;63.90;;;;;;5037614;28;20207;-75
2022/01/06 01:47:28;;;;;;;6.65;2.40;;;4.50;64.30;;;;;;5037476;28;20210;-75
2022/01/06 01:49:59;;;;;;;9.88;3.15;;;4.50;63.90;;;;;;5037366;28;20230;-74
2022/01/06 01:52:26;;;;;;;7.00;3.30;;;4.40;64.60;;;;;;5035567;28;20195;-75
2022/01/06 01:54:53;;;;;;;5.65;3.00;;;4.40;65.00;;;;;;5035462;28;20211;-75
2022/01/06 01:57:20;;;;;;;6.55;2.95;;;4.40;65.70;;;;;;5035830;28;20273;-74
2022/01/06 01:59:47;;;;;;;6.03;3.10;;;4.50;65.20;;;;;;5036715;28;20211;-77
2022/01/06 02:02:15;;;;;;;6.88;3.00;;;4.50;65.30;;;;;;5044059;28;20583;-75
2022/01/06 02:04:42;;;;;;;5.80;2.90;;;4.50;65.40;;;;;;5042638;28;20571;-74
2022/01/06 02:07:09;;;;;;;9.57;2.95;;;4.50;65.50;;;;;;5039836;28;20210;-77
2022/01/06 02:09:36;;;;;;;13.45;4.32;;;4.40;65.80;;;;;;5044022;28;20271;-75
2022/01/06 02:12:03;;;;;;;10.05;3.80;;;4.40;66.00;;;;;;5034734;28;20211;-75
2022/01/06 02:14:33;;;;;;;9.20;3.13;;;4.40;66.20;;;;;;5034378;28;20242;-75
2022/01/06 02:17:00;;;;;;;10.07;2.88;;;4.40;66.20;;;;;;5034406;28;20206;-75
2022/01/06 02:19:28;;;;;;;7.68;4.10;;;4.40;66.30;;;;;;5033708;28;20235;-74
2022/01/06 02:21:56;;;;;;;7.30;3.20;;;4.40;66.50;;;;;;5034067;28;20290;-75
2022/01/06 02:24:23;;;;;;;4.75;3.25;;;4.30;67.50;;;;;;5034442;28;20517;-74
2022/01/06 02:26:50;;;;;;;11.20;2.90;;;4.40;67.20;;;;;;5033948;28;20652;-75
2022/01/06 02:29:19;;;;;;;10.25;3.60;;;4.30;66.80;;;;;;5034192;28;20219;-75
2022/01/06 02:31:47;;;;;;;10.43;3.20;;;4.30;67.20;;;;;;5034295;28;20203;-75
2022/01/06 02:34:14;;;;;;;4.13;2.70;;;4.40;67.10;;;;;;5034561;28;20214;-75
2022/01/06 02:36:40;;;;;;;5.90;2.65;;;4.30;67.20;;;;;;5036366;28;20207;-74
2022/01/06 02:39:09;;;;;;;6.40;3.33;;;4.40;67.20;;;;;;5037141;28;20317;-76
2022/01/06 02:41:36;;;;;;;6.90;2.80;;;4.40;67.10;;;;;;5035790;28;20211;-75
2022/01/06 02:44:03;;;;;;;6.00;2.58;;;4.30;67.30;;;;;;5035947;28;20210;-74
2022/01/06 02:46:30;;;;;;;5.80;3.00;;;4.30;67.50;;;;;;5034877;28;20234;-75
2022/01/06 02:48:57;;;;;;;6.25;2.20;;;4.40;67.70;;;;;;5033277;28;20231;-74
2022/01/06 02:51:24;;;;;;;6.05;2.97;;;4.30;67.70;;;;;;5033718;28;20204;-74
2022/01/06 02:53:53;;;;;;;7.70;3.22;;;4.40;67.80;;;;;;5034379;28;20207;-74
2022/01/06 02:56:21;;;;;;;7.00;2.85;;;4.40;67.90;;;;;;5034065;28;20218;-75
2022/01/06 02:58:48;;;;;;;5.55;2.88;;;4.40;67.60;;;;;;5033460;28;20571;-75
2022/01/06 03:01:15;;;;;;;7.38;2.67;;;4.40;67.80;;;;;;5033784;28;20321;-77
2022/01/06 03:03:42;;;;;;;9.35;3.20;;;4.30;68.10;;;;;;5033220;28;20269;-75
2022/01/06 03:06:08;;;;;;;7.13;3.33;;;4.40;68.20;;;;;;5033154;28;20651;-75
2022/01/06 03:08:37;;;;;;;8.10;2.90;;;4.30;68.40;;;;;;5033290;28;20250;-76
2022/01/06 03:11:04;;;;;;;6.68;2.90;;;4.30;68.90;;;;;;5032991;28;20211;-76
2022/01/06 03:13:32;;;;;;;5.95;2.75;;;4.40;68.90;;;;;;5033648;28;20302;-74
2022/01/06 03:16:01;;;;;;;7.32;3.33;;;4.40;68.40;;;;;;5034060;28;20322;-74
2022/01/06 03:18:28;;;;;;;8.27;3.08;;;4.40;69.60;;;;;;5035891;28;20234;-74
2022/01/06 03:20:55;;;;;;;8.43;3.00;;;4.30;69.30;;;;;;5043078;28;20245;-75
2022/01/06 03:23:21;;;;;;;8.75;3.40;;;4.30;69.50;;;;;;5034931;28;20227;-75
2022/01/06 03:25:48;;;;;;;5.18;2.83;;;4.30;70.10;;;;;;5033941;28;20798;-75
2022/01/06 03:28:15;;;;;;;5.70;3.28;;;4.30;70.30;;;;;;5033420;28;20223;-74
2022/01/06 03:30:44;;;;;;;10.88;2.83;;;4.30;70.60;;;;;;5033157;28;20217;-74
2022/01/06 03:33:10;;;;;;;10.60;3.30;;;4.30;71.00;;;;;;5032795;28;20261;-75
2022/01/06 03:35:37;;;;;;;6.22;3.05;;;4.20;71.30;;;;;;5033509;28;20565;-75
2022/01/06 03:38:04;;;;;;;6.32;3.20;;;4.30;71.80;;;;;;5033527;28;20306;-75
2022/01/06 03:40:31;;;;;;;5.85;3.20;;;4.20;72.30;;;;;;5033301;28;20203;-75
2022/01/06 03:42:58;;;;;;;9.63;3.78;;;4.30;72.40;;;;;;5034510;28;20213;-75
2022/01/06 03:45:25;;;;;;;6.88;3.50;;;4.30;73.10;;;;;;5034487;28;20602;-74
2022/01/06 03:47:53;;;;;;;8.52;3.90;;;4.30;72.50;;;;;;5034297;28;20589;-74
2022/01/06 03:50:20;;;;;;;9.85;3.90;;;4.20;72.30;;;;;;5038579;28;20269;-74
2022/01/06 03:52:47;;;;;;;4.25;2.65;;;4.20;72.60;;;;;;5043917;28;20270;-75
2022/01/06 03:55:15;;;;;;;7.30;3.50;;;4.20;73.40;;;;;;5047832;28;20203;-73
2022/01/06 03:57:42;;;;;;;8.93;3.85;;;4.20;73.70;;;;;;5044708;28;20313;-73
2022/01/06 04:00:12;;;;;;;7.25;3.35;;;4.20;74.50;;;;;;5049042;28;20203;-76
2022/01/06 04:02:40;;;;;;;9.85;3.63;;;4.10;74.90;;;;;;5053960;28;20210;-75
2022/01/06 04:05:10;;;;;;;12.80;4.13;;;4.00;75.40;;;;;;5054600;28;20190;-76
2022/01/06 04:07:38;;;;;;;8.77;4.05;;;4.00;76.30;;;;;;5053521;28;20261;-74
2022/01/06 04:10:06;;;;;;;7.40;3.67;;;3.90;76.50;;;;;;5050617;28;20262;-74
2022/01/06 04:12:35;;;;;;;10.50;3.90;;;3.90;77.60;;;;;;5046301;28;20211;-74
2022/01/06 04:15:02;;;;;;;7.35;3.55;;;3.90;77.90;;;;;;5048068;28;20213;-74
2022/01/06 04:17:29;;;;;;;6.72;3.70;;;3.90;78.80;;;;;;5053205;28;20238;-73
2022/01/06 04:19:55;;;;;;;6.32;3.15;;;3.90;79.10;;;;;;5055837;28;20195;-76
2022/01/06 04:22:24;;;;;;;8.55;3.63;;;3.80;79.30;;;;;;5053815;28;20207;-75
2022/01/06 04:24:50;;;;;;;7.50;3.47;;;3.70;80.20;;;;;;5051912;28;20282;-76
2022/01/06 04:27:17;;;;;;;7.07;3.20;;;3.70;80.30;;;;;;5053498;28;20636;-77
2022/01/06 04:29:47;;;;;;;7.95;3.60;;;3.70;81.60;;;;;;5051961;28;20656;-76
2022/01/06 04:32:14;;;;;;;8.70;4.18;;;3.70;81.80;;;;;;5044346;28;20216;-76
2022/01/06 04:34:41;;;;;;;9.02;3.65;;;3.60;82.30;;;;;;5041665;28;20231;-75
2022/01/06 04:37:08;;;;;;;6.65;3.67;;;3.70;83.40;;;;;;5047309;28;20227;-77
2022/01/06 04:39:36;;;;;;;9.40;3.85;;;3.60;83.60;;;;;;5070668;28;20218;-77
2022/01/06 04:42:03;;;;;;;10.77;4.15;;;3.60;84.40;;;;;;5073704;28;20226;-76
2022/01/06 04:44:30;;;;;;;8.23;3.78;;;3.50;84.30;;;;;;5075536;28;20465;-75
2022/01/06 04:46:57;;;;;;;7.65;3.85;;;3.50;84.90;;;;;;5075719;28;20207;-76
2022/01/06 04:49:24;;;;;;;9.38;3.85;;;3.50;85.30;;;;;;5059221;28;20693;-75
2022/01/06 04:51:50;;;;;;;11.20;3.78;;;3.40;86.40;;;;;;5056615;28;20214;-75
2022/01/06 04:54:17;;;;;;;8.23;3.55;;;3.40;87.00;;;;;;5058484;28;20217;-76
2022/01/06 04:56:46;;;;;;;8.38;4.40;;;3.30;88.20;;;;;;5065430;28;20268;-74
2022/01/06 04:59:12;;;;;;;9.27;4.40;;;3.30;89.20;;;;;;5056941;28;20314;-75
2022/01/06 05:01:40;;;;;;;8.20;3.95;;;3.30;90.00;;;;;;5058415;28;20293;-74
2022/01/06 05:04:07;;;;;;;7.65;4.10;;;3.30;90.30;;;;;;5043589;28;20207;-75
2022/01/06 05:06:34;;;;;;;14.52;4.20;;;3.30;90.80;;;;;;5040286;28;20293;-77
2022/01/06 05:09:01;;;;;;;9.40;4.50;;;3.20;90.90;;;;;;5041777;28;20233;-75
2022/01/06 05:11:28;;;;;;;11.48;4.60;;;3.20;90.90;;;;;;5047463;28;20214;-75
2022/01/06 05:13:57;;;;;;;8.80;5.00;;;3.20;91.40;;;;;;5052385;28;20206;-76
2022/01/06 05:16:24;;;;;;;8.20;5.03;;;3.30;91.60;;;;;;5050759;28;20291;-76
2022/01/06 05:19:12;;;;;;;10.07;4.70;;;3.30;91.70;;;;;;5091195;23;20793;-77
2022/01/06 05:22:05;;;;;;;6.47;4.38;;;3.30;91.80;;;;;;5026595;28;20286;-78
2022/01/06 05:25:13;;;;;;;9.32;4.57;;;3.30;91.70;;;;;;5021963;28;20303;-78
2022/01/06 05:27:43;;;;;;;7.60;4.10;;;3.30;91.70;;;;;;5019891;28;20208;-77
2022/01/06 05:30:27;;;;;;;7.55;4.45;;;3.30;91.70;;;;;;5018773;28;20278;-77
2022/01/06 05:33:19;;;;;;;6.82;4.60;;;3.30;91.90;;;;;;5038641;28;20223;-77
2022/01/06 05:35:52;;;;;;;13.93;4.40;;;3.20;92.10;;;;;;5040214;28;20357;-77
2022/01/06 05:38:27;;;;;;;10.82;4.82;;;3.20;92.30;;;;;;5045610;28;20231;-76
2022/01/06 05:40:55;;;;;;;6.60;4.82;;;3.20;92.40;;;;;;5044971;28;20612;-78
2022/01/06 05:43:23;;;;;;;7.93;4.22;;;3.20;92.60;;;;;;5047275;28;20218;-77
2022/01/06 05:46:03;;;;;;;9.45;4.72;;;3.20;92.90;;;;;;5042628;28;20203;-77
2022/01/06 05:48:33;;;;;;;11.00;4.90;;;3.20;93.20;;;;;;5045081;28;20250;-77
2022/01/06 05:51:04;;;;;;;12.63;4.75;;;3.30;93.20;;;;;;5045934;28;20254;-77
2022/01/06 05:53:33;;;;;;;12.60;5.50;;;3.30;93.20;;;;;;5044181;28;20207;-77
2022/01/06 05:56:02;;;;;;;7.40;5.03;;;3.30;93.20;;;;;;5040031;28;20243;-78
2022/01/06 05:58:34;;;;;;;12.23;5.53;;;3.30;93.10;;;;;;5039746;28;20223;-77
2022/01/06 06:01:09;;;;;;;12.20;4.50;;;3.30;92.90;;;;;;5040833;28;20192;-77
2022/01/06 06:03:44;;;;;;;15.05;4.53;;;3.20;93.00;;;;;;5041060;28;20202;-77
2022/01/06 06:06:14;;;;;;;9.60;5.10;;;3.20;93.20;;;;;;5046192;28;20217;-78
2022/01/06 06:08:51;;;;;;;10.02;5.20;;;3.30;93.40;;;;;;5045780;28;20234;-76
2022/01/06 06:11:21;;;;;;;7.43;4.28;;;3.20;92.80;;;;;;5045955;28;20210;-77
2022/01/06 06:13:57;;;;;;;7.07;4.55;;;3.20;93.10;;;;;;5049388;28;20202;-78
2022/01/06 06:16:33;;;;;;;11.52;4.90;;;3.20;93.10;;;;;;5054415;28;20230;-80
2022/01/06 06:19:06;;;;;;;10.13;5.47;;;3.20;93.40;;;;;;5057557;28;20241;-78
2022/01/06 06:21:36;;;;;;;11.55;4.97;;;3.30;93.50;;;;;;5056205;28;20191;-77
2022/01/06 06:24:18;;;;;;;9.43;5.57;;;3.20;93.30;;;;;;5039039;28;20203;-77
2022/01/06 06:26:50;;;;;;;11.55;4.40;;;3.20;93.30;;;;;;5040714;28;20245;-78
2022/01/06 06:29:22;;;;;;;8.40;4.70;;;3.20;93.60;;;;;;5041551;28;20253;-77
2022/01/06 06:31:52;;;;;;;12.30;4.85;;;3.30;93.50;;;;;;5044292;28;20260;-77
2022/01/06 06:34:45;;;;;;;8.55;4.40;;;3.30;93.30;;;;;;5048125;28;20207;-77
2022/01/06 06:37:13;;;;;;;10.88;5.35;;;3.20;93.00;;;;;;5051642;28;20246;-77
2022/01/06 06:39:54;;;;;;;11.57;5.57;;;3.20;93.70;;;;;;5051207;28;20227;-77
2022/01/06 06:42:25;;;;;;;10.55;5.07;;;3.30;93.90;;;;;;5050994;28;20207;-77
2022/01/06 06:45:01;;;;;;;10.73;4.72;;;3.20;94.00;;;;;;5042034;28;20655;-77
2022/01/06 06:47:40;;;;;;;10.27;5.18;;;3.30;94.30;;;;;;5037169;28;20577;-77
2022/01/06 06:50:12;;;;;;;11.90;5.25;;;3.40;94.30;;;;;;5036166;28;20233;-78
2022/01/06 06:53:03;;;;;;;11.23;5.10;;;3.40;93.60;;;;;;5035302;28;20295;-78
2022/01/06 06:55:36;;;;;;;8.70;5.53;;;3.40;93.40;;;;;;5033245;28;20253;-77
2022/01/06 06:58:26;;;;;;;9.85;4.80;;;3.40;93.10;;;;;;5039018;28;20638;-77
2022/01/06 07:01:04;;;;;;;16.77;6.60;;;3.50;93.00;;;;;;5047154;28;20218;-77
2022/01/06 07:03:44;;;;;;;8.80;4.85;;;3.50;92.90;;;;;;5051030;28;20207;-77
2022/01/06 07:06:17;;;;;;;9.73;5.22;;;3.50;92.60;;;;;;5049650;28;20195;-76
2022/01/06 07:08:52;;;;;;;12.02;5.35;;;3.50;92.50;;;;;;5050109;28;20227;-77
2022/01/06 07:11:23;;;;;;;11.95;5.45;;;3.50;92.60;;;;;;5036272;28;20245;-76
2022/01/06 07:13:50;;;;;;;9.02;5.07;;;3.60;92.40;;;;;;5037707;28;20203;-77
2022/01/06 07:16:17;;;;;;;6.97;4.65;;;3.60;92.00;;;;;;5036019;28;20661;-78
2022/01/06 07:18:51;;;;;;;8.70;6.10;;;3.60;91.70;;;;;;5038060;28;20285;-77
2022/01/06 07:21:18;;;;;;;9.52;5.47;;;3.60;91.50;;;;;;5042372;28;20213;-77
2022/01/06 07:23:46;;;;;;;7.20;4.88;;;3.60;91.50;;;;;;5037788;28;20207;-77
2022/01/06 07:26:23;;;;;;;8.82;5.90;;;3.60;91.60;;;;;;5035497;28;20290;-77
2022/01/06 07:28:51;;;;;;;9.00;5.95;;;3.60;91.60;;;;;;5036022;28;20227;-77
2022/01/06 07:31:18;;;;;;;8.98;6.15;;;3.50;91.80;;;;;;5048533;28;20200;-77
2022/01/06 07:33:48;;;;;;;12.82;5.82;;;3.50;91.80;;;;;;5048847;28;20226;-76
2022/01/06 07:36:19;;;;;;;9.25;5.95;;;3.40;91.90;;;;;;5048616;28;20207;-77
2022/01/06 07:38:48;;;;;;;12.10;6.43;;;3.50;92.40;;;;;;5048548;28;20257;-78
2022/01/06 07:41:17;;;;;;;13.05;5.97;;;3.40;92.40;;;;;;5050547;28;20211;-77
2022/01/06 07:43:49;;;;;;;9.07;6.10;;;3.40;92.80;;;;;;5038262;28;20245;-77
2022/01/06 07:46:24;;;;;;;10.70;6.22;;;3.40;93.00;;;;;;5040220;28;20225;-77
2022/01/06 07:49:07;;;;;;;11.57;6.70;;;3.40;93.00;;;;;;5041011;28;20231;-77
2022/01/06 07:51:49;;;;;;;13.23;5.80;;;3.40;93.40;;;;;;5052183;28;20237;-77
2022/01/06 07:54:41;;;;;;;9.95;6.13;;;3.40;93.50;;;;;;5054153;28;20230;-77
2022/01/06 07:57:08;;;;;;;8.00;6.25;;;3.40;93.70;;;;;;5052957;28;20618;-77
2022/01/06 07:59:35;;;;;;;9.63;5.97;;;3.50;93.60;;;;;;5051812;28;20630;-76
2022/01/06 08:02:10;;;;;;;8.02;6.07;;;3.50;93.10;;;;;;5053225;28;20225;-77
2022/01/06 08:04:38;;;;;;;11.73;7.18;;;3.50;92.90;;;;;;5053651;28;20234;-77
2022/01/06 08:07:06;;;;;;;12.75;7.05;;;3.50;93.00;;;;;;5052040;28;20732;-77
2022/01/06 08:09:35;;;;;;;11.15;6.65;;;3.50;93.10;;;;;;5052198;28;20230;-77
2022/01/06 08:12:17;;;;;;;8.63;5.97;;;3.60;93.20;;;;;;5056475;28;20237;-79
2022/01/06 08:14:47;;;;;;;12.32;6.95;;;3.60;93.00;;;;;;5056533;28;20211;-77
2022/01/06 08:17:15;;;;;;;7.85;5.47;;;3.60;92.70;;;;;;5056757;28;20238;-78
2022/01/06 08:19:47;;;;;;;8.52;6.47;;;3.60;92.90;;;;;;5055313;28;20231;-77
2022/01/06 08:22:17;;;;;;;15.55;6.85;;;3.70;92.90;;;;;;5054326;28;20296;-77
2022/01/06 08:24:53;;;;;;;7.95;6.32;;;3.70;92.60;;;;;;5056059;28;20222;-77
2022/01/06 08:27:23;;;;;;;11.60;5.90;;;3.80;92.20;;;;;;5053984;28;20206;-77
2022/01/06 08:29:58;;;;;;;9.75;6.35;;;3.80;92.00;;;;;;5050105;28;20237;-76
2022/01/06 08:32:25;;;;;;;13.60;6.78;;;3.90;91.60;;;;;;5039973;28;20191;-78
2022/01/06 08:34:52;;;;;;;8.23;5.68;;;3.90;91.20;;;;;;5051441;28;20234;-79
2022/01/06 08:37:20;;;;;;;11.68;6.65;;;3.90;90.90;;;;;;5053827;28;20207;-78
2022/01/06 08:40:00;;;;;;;9.35;6.55;;;3.80;90.60;;;;;;5039710;28;20269;-76
2022/01/06 08:42:30;;;;;;;12.63;6.75;;;3.80;91.10;;;;;;5039162;28;20214;-77
2022/01/06 08:45:13;;;;;;;10.25;6.03;;;3.80;91.10;;;;;;5039901;28;20694;-77
2022/01/06 08:47:42;;;;;;;7.53;5.40;;;3.80;91.10;;;;;;5040207;28;20215;-76
2022/01/06 08:50:26;;;;;;;12.10;6.90;;;3.80;91.10;;;;;;5040830;28;20452;-77
2022/01/06 08:53:25;;;;;;;13.00;6.28;;;3.80;91.10;;;;;;5046517;28;20191;-77
2022/01/06 08:56:01;;;;;;;10.18;6.10;;;3.80;91.20;;;;;;5038574;28;20199;-77
2022/01/06 08:58:37;;;;;;;12.88;6.50;;;3.80;91.10;;;;;;5038257;28;20317;-77
2022/01/06 09:01:15;;;;;;;14.60;6.53;;;3.80;91.10;;;;;;5038148;28;20203;-77
2022/01/06 09:03:51;;;;;;;9.80;5.90;;;3.90;91.20;;;;;;5038485;28;20297;-77
2022/01/06 09:06:20;;;;;;;10.20;5.50;;;3.90;91.20;;;;;;5038389;28;20230;-76
2022/01/06 09:08:49;;;;;;;9.95;5.90;;;3.90;91.20;;;;;;5038627;28;20281;-76
2022/01/06 09:11:24;;;;;;;8.43;6.15;;;4.00;91.20;;;;;;5038393;28;20254;-78
2022/01/06 09:13:57;;;;;;;12.18;6.30;;;4.10;90.90;;;;;;5038587;28;20199;-77
2022/01/06 09:16:39;;;;;;;10.02;6.78;;;4.20;90.10;;;;;;5038683;28;20571;-76
2022/01/06 09:19:21;;;;;;;9.05;5.88;;;4.30;89.10;;;;;;5040365;28;20239;-77
2022/01/06 09:21:49;;;;;;;8.27;6.05;;;4.40;87.60;;;;;;5045547;28;20235;-77
2022/01/06 09:24:20;;;;;;;10.32;6.00;;;4.50;85.40;;;;;;5041032;28;20203;-77
2022/01/06 09:26:48;;;;;;;8.98;5.70;;;4.50;84.90;;;;;;5043268;28;20257;-77
2022/01/06 09:29:32;;;;;;;12.20;6.40;;;4.50;84.20;;;;;;5044470;28;20281;-76
2022/01/06 09:32:04;;;;;;;10.80;5.95;;;4.40;84.50;;;;;;5040618;28;20214;-77
2022/01/06 09:34:31;;;;;;;13.65;7.38;;;4.60;85.20;;;;;;5039194;28;20188;-77
2022/01/06 09:37:20;;;;;;;9.10;6.80;;;4.80;83.90;;;;;;5038532;28;20268;-77
2022/01/06 09:39:52;;;;;;;10.70;6.93;;;4.80;81.70;;;;;;5038072;28;20261;-77
2022/01/06 09:42:35;;;;;;;9.95;6.68;;;4.80;81.10;;;;;;5039047;28;20203;-77
2022/01/06 09:45:32;;;;;;;7.75;6.10;;;4.80;80.50;;;;;;5037733;28;20254;-77
2022/01/06 09:51:13;;;;;;;8.50;5.40;;;5.00;80.70;;;;;;5036007;28;20230;-78
2022/01/06 09:56:43;;;;;;;12.25;6.20;;;5.00;77.20;;;;;;5029045;28;20202;-77
2022/01/06 09:59:25;;;;;;;9.15;6.60;;;5.00;77.20;;;;;;5039756;28;20227;-77
2022/01/06 10:04:48;;;;;;;13.57;6.68;;;4.90;78.20;;;;;;5033130;28;20222;-77
2022/01/06 10:07:45;;;;;;;12.77;6.82;;;4.90;77.80;;;;;;5039020;28;20218;-79
2022/01/06 10:10:23;;;;;;;9.95;6.50;;;4.90;78.00;;;;;;5041477;28;20215;-76
2022/01/06 10:13:11;;;;;;;12.88;6.45;;;5.00;78.50;;;;;;5040979;28;20217;-78
2022/01/06 10:15:56;;;;;;;13.40;6.75;;;5.10;77.20;;;;;;5040336;28;20211;-78
2022/01/06 10:18:41;;;;;;;10.10;5.63;;;5.10;76.60;;;;;;5038785;28;20234;-77
2022/01/06 10:21:47;;;;;;;9.35;6.68;;;5.20;76.90;;;;;;5041282;28;20639;-78
2022/01/06 10:24:37;;;;;;;12.88;6.55;;;5.30;75.60;;;;;;5041274;28;20253;-77
2022/01/06 10:27:56;;;;;;;;;;;;;;;;;;;;;
2022/01/06 10:30:51;;;;;;;8.95;6.28;;;5.30;74.90;;;;;;5037999;28;20227;-77
2022/01/06 10:39:57;;;;;;;12.77;6.50;;;5.40;73.30;;;;;;4964886;29;20296;-77
2022/01/06 10:42:45;;;;;;;10.40;6.43;;;5.40;73.30;;;;;;4956867;29;20222;-78
2022/01/06 10:52:13;;;;;;;13.48;5.82;;;5.40;73.30;;;;;;4945337;29;20234;-77
2022/01/06 10:55:02;;;;;;;9.50;6.13;;;5.40;72.30;;;;;;4960431;29;20233;-76
2022/01/06 10:58:01;;;;;;;9.50;5.60;;;5.40;72.90;;;;;;4960713;29;20229;-76
2022/01/06 11:00:48;;;;;;;9.77;5.57;;;5.50;72.70;;;;;;4959309;29;20395;-77
2022/01/06 11:07:27;;;;;;;12.77;6.13;;;5.80;70.40;;;;;;4906829;29;20210;-77
2022/01/06 11:13:23;;;;;;;9.10;4.90;;;6.00;68.20;;;;;;4969096;28;20200;-78
2022/01/06 11:16:20;;;;;;;12.82;5.20;;;6.20;67.50;;;;;;5046687;28;20203;-78
2022/01/06 11:18:51;;;;;;;6.55;5.10;;;6.40;65.50;;;;;;5075240;23;20694;-75
2022/01/06 11:21:22;;;;;;;9.57;5.60;;;6.50;65.60;;;;;;5053749;28;20213;-76
2022/01/06 11:24:01;;;;;;;8.30;5.00;;;6.60;64.20;;;;;;5053974;28;20665;-78
2022/01/06 11:26:28;;;;;;;7.45;5.65;;;6.60;63.20;;;;;;5054132;28;20398;-76
2022/01/06 11:28:58;;;;;;;11.52;5.45;;;6.50;63.20;;;;;;5054986;28;20309;-77
2022/01/06 11:31:27;;;;;;;9.65;4.60;;;6.60;63.10;;;;;;5054790;28;20227;-77
2022/01/06 11:33:57;;;;;;;9.52;4.93;;;6.70;62.70;;;;;;5054401;28;20199;-76
2022/01/06 11:36:26;;;;;;;11.50;4.72;;;6.70;61.30;;;;;;5054840;28;20206;-77
2022/01/06 11:38:55;;;;;;;7.95;4.55;;;6.70;61.30;;;;;;5058045;28;20272;-76
2022/01/06 11:41:26;;;;;;;7.13;4.10;;;6.80;61.40;;;;;;5055420;28;20210;-76
2022/01/06 11:43:57;;;;;;;9.05;4.70;;;6.80;60.50;;;;;;5056432;28;20252;-75
2022/01/06 11:46:24;;;;;;;8.45;4.80;;;6.80;60.10;;;;;;5057795;28;20236;-77
2022/01/06 11:48:53;;;;;;;9.65;4.72;;;6.70;60.00;;;;;;5056505;28;20226;-77
2022/01/06 11:51:29;;;;;;;9.85;5.50;;;6.60;60.00;;;;;;5055642;28;20241;-76
2022/01/06 11:53:58;;;;;;;6.88;4.30;;;6.70;60.50;;;;;;5056601;28;20202;-76
2022/01/06 11:56:27;;;;;;;14.32;6.07;;;6.70;60.40;;;;;;5058194;28;20206;-76
2022/01/06 11:58:59;;;;;;;6.90;4.55;;;6.80;60.10;;;;;;5061299;28;20258;-79
2022/01/06 12:01:27;;;;;;;11.50;4.90;;;6.70;59.90;;;;;;5059694;28;20203;-76
2022/01/06 12:03:54;;;;;;;5.95;4.05;;;6.70;60.20;;;;;;5063215;28;20213;-78
2022/01/06 12:06:30;;;;;;;9.82;4.30;;;6.70;60.10;;;;;;5066368;28;20227;-76
2022/01/06 12:08:59;;;;;;;8.07;4.40;;;6.90;60.00;;;;;;5066699;28;20226;-76
2022/01/06 12:11:28;;;;;;;11.18;4.70;;;7.00;59.90;;;;;;5063589;28;20289;-77
2022/01/06 12:13:56;;;;;;;8.90;4.18;;;7.00;59.70;;;;;;5065179;28;20213;-77
2022/01/06 12:16:25;;;;;;;6.90;4.05;;;7.10;58.80;;;;;;5056961;28;20217;-75
2022/01/06 12:18:52;;;;;;;7.93;4.80;;;7.10;59.30;;;;;;5055612;28;20273;-76
2022/01/06 12:21:19;;;;;;;7.50;4.32;;;7.20;58.70;;;;;;5055791;28;20199;-77
2022/01/06 12:23:46;;;;;;;12.10;4.75;;;7.10;58.10;;;;;;5056353;28;20675;-76
2022/01/06 12:26:14;;;;;;;8.18;4.63;;;7.00;58.80;;;;;;5058141;28;20203;-76
2022/01/06 12:28:54;;;;;;;7.53;4.50;;;6.90;58.60;;;;;;5062115;28;20360;-77
2022/01/06 12:31:23;;;;;;;6.70;4.00;;;6.90;58.10;;;;;;5062198;28;20230;-77
2022/01/06 12:33:51;;;;;;;8.02;5.22;;;6.90;58.30;;;;;;5062416;28;20429;-78
2022/01/06 12:36:19;;;;;;;9.52;4.22;;;6.90;58.20;;;;;;5061564;28;20225;-77
2022/01/06 12:38:47;;;;;;;16.23;5.20;;;6.90;59.00;;;;;;5065399;28;20258;-76
2022/01/06 12:41:16;;;;;;;6.65;4.50;;;6.90;59.00;;;;;;5064436;28;20198;-76
2022/01/06 12:43:44;;;;;;;8.70;3.90;;;6.70;59.00;;;;;;5061643;28;20218;-77
2022/01/06 12:46:12;;;;;;;10.25;4.47;;;6.60;59.40;;;;;;5064562;28;20252;-76
2022/01/06 12:48:41;;;;;;;8.52;5.78;;;6.70;59.60;;;;;;5065746;28;20321;-77
2022/01/06 12:51:10;;;;;;;10.02;5.07;;;6.60;59.90;;;;;;5066075;28;20234;-76
2022/01/06 12:53:39;;;;;;;8.13;5.05;;;6.60;60.40;;;;;;5063934;28;20229;-76
2022/01/06 12:56:06;;;;;;;10.10;4.82;;;6.60;60.80;;;;;;5069645;28;20202;-75
2022/01/06 12:58:37;;;;;;;8.45;4.97;;;6.60;61.10;;;;;;5075054;28;20231;-75
2022/01/06 13:01:05;;;;;;;7.90;4.60;;;6.60;60.50;;;;;;5073734;28;20269;-77
2022/01/06 13:03:34;;;;;;;8.70;5.20;;;6.70;60.40;;;;;;5071558;28;20217;-74
2022/01/06 13:06:03;;;;;;;6.75;3.78;;;6.80;59.80;;;;;;5064765;28;20218;-76
2022/01/06 13:08:31;;;;;;;11.00;5.05;;;6.90;59.40;;;;;;5066377;28;20230;-77
2022/01/06 13:11:06;;;;;;;11.90;4.45;;;6.90;59.80;;;;;;5069695;28;20222;-76
2022/01/06 13:13:48;;;;;;;9.32;4.28;;;6.90;59.20;;;;;;5075239;28;20213;-76
2022/01/06 13:16:17;;;;;;;7.18;3.97;;;6.90;58.70;;;;;;5071373;28;20238;-77
2022/01/06 13:18:55;;;;;;;8.07;5.40;;;7.00;58.70;;;;;;5070243;28;20246;-76
2022/01/06 13:21:28;;;;;;;6.18;4.30;;;7.10;58.30;;;;;;5067368;28;20207;-77
2022/01/06 13:23:56;;;;;;;8.75;4.75;;;7.20;57.20;;;;;;5064585;28;20211;-77
2022/01/06 13:26:23;;;;;;;10.65;3.95;;;7.20;57.20;;;;;;5059612;28;20548;-76
2022/01/06 13:28:59;;;;;;;11.82;3.75;;;7.20;57.20;;;;;;5056952;28;20240;-76
2022/01/06 13:31:26;;;;;;;10.13;4.65;;;7.00;57.10;;;;;;5058170;28;20222;-76
2022/01/06 13:33:56;;;;;;;6.07;3.55;;;7.00;57.10;;;;;;5059785;28;20369;-77
2022/01/06 13:36:33;;;;;;;8.55;3.88;;;7.00;57.10;;;;;;5061294;28;20284;-75
2022/01/06 13:39:11;;;;;;;7.63;4.05;;;6.80;56.90;;;;;;5058982;28;20318;-77
2022/01/06 13:41:41;;;;;;;10.60;3.63;;;6.90;57.00;;;;;;5059024;28;20234;-77
2022/01/06 13:44:12;;;;;;;7.00;4.00;;;6.80;56.90;;;;;;5060361;28;20230;-76
2022/01/06 13:46:52;;;;;;;7.25;3.78;;;6.80;56.90;;;;;;5058395;28;20215;-76
2022/01/06 13:52:16;;;;;;;6.25;3.65;;;6.80;56.90;;;;;;5057185;28;20657;-77
2022/01/06 13:54:43;;;;;;;8.07;3.58;;;6.70;56.80;;;;;;5057498;28;20207;-76
2022/01/06 13:57:11;;;;;;;9.15;3.70;;;6.60;56.70;;;;;;5058948;28;20214;-76